SHU279 RJTT-UHWW
Flight info
| Callsign | SHU279 |
|---|---|
| Flight time | N/A |
| Altitude | 36000 |
| Route | GUSRO GYODA Y88 AKAGI V15 GTC R211 KADBO B451 IGROD/K0839F360 B451 IDBUR DCT KESAN KESAN2M |
| Aircraft | A319/M-SDE3FGHIRWY/LB1 |
Departure
| Time | 2026-02-17 14:56 |
|---|---|
| Airport | Tokyo Haneda International Airport (RJTT) |
Arrival
| Time | N/A |
|---|---|
| Airport | Vladivostok International Airport (UHWW) |
| Time | Latitude | Longitude | Altitude | Speed | Heading |
|---|---|---|---|---|---|
| 2026-02-17 14:21 | 35.54514 | 139.78638 | 31 ft | 0 kts | 330° |
| 2026-02-17 14:41 | 35.54513 | 139.78638 | 31 ft | 0 kts | 330° |
| 2026-02-17 14:41 | 35.54504 | 139.78644 | 31 ft | 2 kts | 330° |
| 2026-02-17 14:42 | 35.54491 | 139.78654 | 31 ft | 2 kts | 330° |
| 2026-02-17 14:42 | 35.54478 | 139.78664 | 32 ft | 2 kts | 330° |
| 2026-02-17 14:42 | 35.54465 | 139.78673 | 32 ft | 2 kts | 330° |
| 2026-02-17 14:43 | 35.54439 | 139.78691 | 33 ft | 2 kts | 330° |
| 2026-02-17 14:43 | 35.54426 | 139.78700 | 33 ft | 2 kts | 330° |
| 2026-02-17 14:43 | 35.54413 | 139.78709 | 34 ft | 2 kts | 330° |
| 2026-02-17 14:43 | 35.54400 | 139.78719 | 34 ft | 2 kts | 331° |
| 2026-02-17 14:44 | 35.54385 | 139.78722 | 35 ft | 2 kts | 8° |
| 2026-02-17 14:44 | 35.54371 | 139.78716 | 35 ft | 2 kts | 38° |
| 2026-02-17 14:44 | 35.54364 | 139.78708 | 35 ft | 0 kts | 57° |
| 2026-02-17 14:44 | 35.54361 | 139.78700 | 35 ft | 0 kts | 60° |
| 2026-02-17 14:47 | 35.54368 | 139.78714 | 35 ft | 1 kts | 60° |
| 2026-02-17 14:47 | 35.54374 | 139.78728 | 35 ft | 2 kts | 60° |
| 2026-02-17 14:47 | 35.54382 | 139.78746 | 35 ft | 3 kts | 60° |
| 2026-02-17 14:47 | 35.54398 | 139.78778 | 36 ft | 5 kts | 60° |
| 2026-02-17 14:48 | 35.54420 | 139.78825 | 36 ft | 7 kts | 59° |
| 2026-02-17 14:48 | 35.54455 | 139.78896 | 35 ft | 11 kts | 58° |
| 2026-02-17 14:48 | 35.54501 | 139.78992 | 34 ft | 14 kts | 59° |
| 2026-02-17 14:48 | 35.54562 | 139.79121 | 27 ft | 17 kts | 59° |
| 2026-02-17 14:49 | 35.54620 | 139.79244 | 22 ft | 16 kts | 61° |
| 2026-02-17 14:49 | 35.54647 | 139.79341 | 18 ft | 12 kts | 112° |
| 2026-02-17 14:49 | 35.54566 | 139.79416 | 16 ft | 16 kts | 151° |
| 2026-02-17 14:49 | 35.54462 | 139.79489 | 15 ft | 18 kts | 150° |
| 2026-02-17 14:50 | 35.54342 | 139.79573 | 16 ft | 20 kts | 150° |
| 2026-02-17 14:50 | 35.54216 | 139.79662 | 14 ft | 20 kts | 150° |
| 2026-02-17 14:50 | 35.54090 | 139.79752 | 12 ft | 21 kts | 150° |
| 2026-02-17 14:51 | 35.53831 | 139.79936 | 9 ft | 21 kts | 150° |
| 2026-02-17 14:51 | 35.53702 | 139.80029 | 7 ft | 21 kts | 149° |
| 2026-02-17 14:51 | 35.53587 | 139.80110 | 8 ft | 19 kts | 150° |
| 2026-02-17 14:51 | 35.53469 | 139.80194 | 8 ft | 19 kts | 150° |
| 2026-02-17 14:52 | 35.53350 | 139.80276 | 8 ft | 19 kts | 150° |
| 2026-02-17 14:52 | 35.53230 | 139.80364 | 8 ft | 19 kts | 149° |
| 2026-02-17 14:52 | 35.53111 | 139.80449 | 8 ft | 20 kts | 150° |
| 2026-02-17 14:52 | 35.53000 | 139.80527 | 8 ft | 16 kts | 150° |
| 2026-02-17 14:53 | 35.52902 | 139.80585 | 8 ft | 15 kts | 183° |
| 2026-02-17 14:53 | 35.52812 | 139.80508 | 8 ft | 16 kts | 223° |
| 2026-02-17 14:53 | 35.52728 | 139.80414 | 8 ft | 16 kts | 222° |
| 2026-02-17 14:53 | 35.52643 | 139.80319 | 8 ft | 10 kts | 221° |
| 2026-02-17 14:54 | 35.52586 | 139.80298 | 8 ft | 9 kts | 165° |
| 2026-02-17 14:54 | 35.52535 | 139.80356 | 8 ft | 10 kts | 133° |
| 2026-02-17 14:54 | 35.52488 | 139.80415 | 8 ft | 6 kts | 130° |
| 2026-02-17 14:55 | 35.52523 | 139.80482 | 8 ft | 6 kts | 45° |
| 2026-02-17 14:55 | 35.52560 | 139.80525 | 8 ft | 12 kts | 43° |
| 2026-02-17 14:55 | 35.52823 | 139.80818 | 8 ft | 87 kts | 41° |
| 2026-02-17 14:55 | 35.53437 | 139.81505 | 22 ft | 145 kts | 39° |
| 2026-02-17 14:56 | 35.54197 | 139.82387 | 531 ft | 150 kts | 42° |
| 2026-02-17 14:56 | 35.54947 | 139.83247 | 1213 ft | 149 kts | 42° |
| 2026-02-17 14:56 | 35.55700 | 139.84085 | 1898 ft | 149 kts | 43° |
| 2026-02-17 14:56 | 35.56274 | 139.85172 | 2319 ft | 162 kts | 81° |
| 2026-02-17 14:57 | 35.56108 | 139.86577 | 2773 ft | 177 kts | 108° |
| 2026-02-17 14:57 | 35.55727 | 139.88084 | 3185 ft | 195 kts | 109° |
| 2026-02-17 14:57 | 35.55333 | 139.89764 | 3624 ft | 215 kts | 108° |
| 2026-02-17 14:57 | 35.54911 | 139.91597 | 4159 ft | 233 kts | 109° |
| 2026-02-17 14:58 | 35.54197 | 139.93443 | 4661 ft | 247 kts | 134° |
| 2026-02-17 14:58 | 35.52802 | 139.94670 | 5303 ft | 253 kts | 162° |
| 2026-02-17 14:58 | 35.51086 | 139.94936 | 6130 ft | 252 kts | 189° |
| 2026-02-17 14:59 | 35.47784 | 139.93686 | 7890 ft | 253 kts | 219° |
| 2026-02-17 14:59 | 35.46667 | 139.92073 | 8759 ft | 254 kts | 242° |
| 2026-02-17 14:59 | 35.46204 | 139.89989 | 9605 ft | 260 kts | 265° |
| 2026-02-17 14:59 | 35.46419 | 139.87772 | 10424 ft | 266 kts | 277° |
| 2026-02-17 15:00 | 35.46766 | 139.85521 | 10905 ft | 281 kts | 277° |
| 2026-02-17 15:00 | 35.47200 | 139.83092 | 11267 ft | 301 kts | 284° |
| 2026-02-17 15:00 | 35.48097 | 139.80682 | 11589 ft | 325 kts | 297° |
| 2026-02-17 15:00 | 35.49562 | 139.78421 | 11915 ft | 346 kts | 308° |
| 2026-02-17 15:01 | 35.51244 | 139.76292 | 12510 ft | 353 kts | 309° |
| 2026-02-17 15:01 | 35.52964 | 139.74159 | 13253 ft | 354 kts | 309° |
| 2026-02-17 15:01 | 35.54668 | 139.72008 | 13989 ft | 353 kts | 307° |
| 2026-02-17 15:01 | 35.56222 | 139.69665 | 14740 ft | 349 kts | 301° |
| 2026-02-17 15:02 | 35.57525 | 139.67183 | 15431 ft | 347 kts | 295° |
| 2026-02-17 15:02 | 35.58826 | 139.64684 | 16096 ft | 354 kts | 306° |
| 2026-02-17 15:02 | 35.60854 | 139.62880 | 16702 ft | 376 kts | 329° |
| 2026-02-17 15:03 | 35.66253 | 139.62326 | 17836 ft | 410 kts | 358° |
| 2026-02-17 15:03 | 35.69134 | 139.62711 | 18321 ft | 415 kts | 358° |
| 2026-02-17 15:03 | 35.72002 | 139.63083 | 18799 ft | 418 kts | 357° |
| 2026-02-17 15:03 | 35.74902 | 139.63429 | 19368 ft | 418 kts | 356° |
| 2026-02-17 15:04 | 35.77803 | 139.63754 | 19998 ft | 417 kts | 356° |
| 2026-02-17 15:04 | 35.80699 | 139.64062 | 20487 ft | 419 kts | 355° |
| 2026-02-17 15:04 | 35.83588 | 139.64357 | 20965 ft | 422 kts | 355° |
| 2026-02-17 15:04 | 35.86550 | 139.64656 | 21418 ft | 425 kts | 355° |
| 2026-02-17 15:05 | 35.89497 | 139.64951 | 21868 ft | 427 kts | 354° |
| 2026-02-17 15:05 | 35.92470 | 139.65247 | 22284 ft | 429 kts | 354° |
| 2026-02-17 15:05 | 35.95441 | 139.65544 | 22762 ft | 431 kts | 354° |
| 2026-02-17 15:05 | 35.98415 | 139.65842 | 23166 ft | 434 kts | 354° |
| 2026-02-17 15:06 | 36.01442 | 139.66145 | 23569 ft | 436 kts | 354° |
| 2026-02-17 15:06 | 36.04482 | 139.66446 | 23923 ft | 439 kts | 354° |
| 2026-02-17 15:06 | 36.07553 | 139.66751 | 24358 ft | 441 kts | 354° |
| 2026-02-17 15:07 | 36.13685 | 139.67363 | 25048 ft | 447 kts | 354° |
| 2026-02-17 15:07 | 36.16776 | 139.67679 | 25381 ft | 448 kts | 354° |
| 2026-02-17 15:07 | 36.19922 | 139.68001 | 25744 ft | 450 kts | 354° |
| 2026-02-17 15:07 | 36.23017 | 139.68312 | 26109 ft | 451 kts | 354° |
| 2026-02-17 15:08 | 36.26152 | 139.68628 | 26450 ft | 453 kts | 353° |
| 2026-02-17 15:08 | 36.29322 | 139.68947 | 26760 ft | 455 kts | 353° |
| 2026-02-17 15:08 | 36.32449 | 139.69258 | 27099 ft | 457 kts | 354° |
| 2026-02-17 15:08 | 36.35655 | 139.69534 | 27416 ft | 454 kts | 351° |
| 2026-02-17 15:09 | 36.38750 | 139.69434 | 27645 ft | 446 kts | 343° |
| 2026-02-17 15:09 | 36.41779 | 139.68884 | 28087 ft | 434 kts | 337° |
| 2026-02-17 15:09 | 36.44695 | 139.67963 | 28429 ft | 427 kts | 333° |
| 2026-02-17 15:09 | 36.47509 | 139.66931 | 28769 ft | 426 kts | 332° |
| 2026-02-17 15:10 | 36.50357 | 139.65868 | 29167 ft | 425 kts | 332° |
| 2026-02-17 15:10 | 36.53189 | 139.64821 | 29542 ft | 424 kts | 332° |
| 2026-02-17 15:10 | 36.56017 | 139.63783 | 29878 ft | 423 kts | 332° |
| 2026-02-17 15:11 | 36.61621 | 139.61726 | 30648 ft | 420 kts | 332° |
| 2026-02-17 15:11 | 36.64439 | 139.60689 | 30914 ft | 420 kts | 331° |
| 2026-02-17 15:11 | 36.67226 | 139.59665 | 31238 ft | 419 kts | 331° |
| 2026-02-17 15:11 | 36.69984 | 139.58653 | 31540 ft | 417 kts | 331° |
| 2026-02-17 15:12 | 36.72789 | 139.57622 | 31836 ft | 416 kts | 330° |
| 2026-02-17 15:12 | 36.75530 | 139.56610 | 32042 ft | 416 kts | 331° |
| 2026-02-17 15:12 | 36.78333 | 139.55566 | 32177 ft | 419 kts | 330° |
| 2026-02-17 15:12 | 36.81146 | 139.54526 | 32324 ft | 421 kts | 331° |
| 2026-02-17 15:13 | 36.83945 | 139.53491 | 32519 ft | 421 kts | 331° |
| 2026-02-17 15:13 | 36.86727 | 139.52467 | 32734 ft | 421 kts | 331° |
| 2026-02-17 15:13 | 36.89560 | 139.51419 | 32966 ft | 420 kts | 330° |
| 2026-02-17 15:13 | 36.92336 | 139.50397 | 33211 ft | 419 kts | 330° |
| 2026-02-17 15:14 | 36.95147 | 139.49356 | 33436 ft | 419 kts | 330° |
| 2026-02-17 15:14 | 36.97923 | 139.48326 | 33604 ft | 419 kts | 330° |
| 2026-02-17 15:14 | 37.00727 | 139.47281 | 33778 ft | 420 kts | 330° |
| 2026-02-17 15:15 | 37.06329 | 139.45197 | 34034 ft | 423 kts | 330° |
| 2026-02-17 15:15 | 37.09142 | 139.44153 | 34266 ft | 421 kts | 330° |
| 2026-02-17 15:15 | 37.11935 | 139.43115 | 34476 ft | 421 kts | 331° |
| 2026-02-17 15:15 | 37.14758 | 139.42073 | 34636 ft | 422 kts | 330° |
| 2026-02-17 15:16 | 37.17554 | 139.41042 | 34815 ft | 422 kts | 330° |
| 2026-02-17 15:16 | 37.20391 | 139.39992 | 34964 ft | 422 kts | 330° |
| 2026-02-17 15:16 | 37.23203 | 139.38942 | 35072 ft | 424 kts | 330° |
| 2026-02-17 15:16 | 37.26024 | 139.37891 | 35226 ft | 424 kts | 330° |
| 2026-02-17 15:17 | 37.31663 | 139.35780 | 35457 ft | 425 kts | 330° |
| 2026-02-17 15:17 | 37.34523 | 139.34711 | 35652 ft | 425 kts | 330° |
| 2026-02-17 15:17 | 37.37325 | 139.33646 | 35765 ft | 425 kts | 329° |
| 2026-02-17 15:18 | 37.43034 | 139.31482 | 35974 ft | 428 kts | 329° |
| 2026-02-17 15:19 | 37.51608 | 139.28249 | 36014 ft | 431 kts | 330° |
| 2026-02-17 15:19 | 37.57347 | 139.26085 | 36029 ft | 431 kts | 330° |
| 2026-02-17 15:20 | 37.61533 | 139.24513 | 36026 ft | 429 kts | 330° |
| 2026-02-17 15:20 | 37.67258 | 139.22356 | 36071 ft | 427 kts | 330° |
| 2026-02-17 15:21 | 37.72950 | 139.20192 | 36089 ft | 431 kts | 330° |
| 2026-02-17 15:21 | 37.78695 | 139.18015 | 36082 ft | 431 kts | 331° |
| 2026-02-17 15:22 | 37.84434 | 139.15843 | 36100 ft | 431 kts | 330° |
| 2026-02-17 15:22 | 37.90094 | 139.13457 | 36093 ft | 424 kts | 326° |
| 2026-02-17 15:23 | 37.97837 | 139.08516 | 36138 ft | 412 kts | 317° |
| 2026-02-17 15:23 | 38.02476 | 139.04376 | 36093 ft | 402 kts | 311° |
| 2026-02-17 15:24 | 38.06759 | 138.99890 | 36133 ft | 400 kts | 310° |
| 2026-02-17 15:24 | 38.11044 | 138.95340 | 36120 ft | 403 kts | 310° |
| 2026-02-17 15:25 | 38.15345 | 138.90836 | 36081 ft | 403 kts | 310° |
| 2026-02-17 15:25 | 38.19678 | 138.86322 | 36088 ft | 404 kts | 310° |
| 2026-02-17 15:26 | 38.24012 | 138.81786 | 36087 ft | 403 kts | 310° |
| 2026-02-17 15:27 | 38.30459 | 138.75008 | 36098 ft | 403 kts | 311° |
| 2026-02-17 15:27 | 38.34796 | 138.70435 | 36086 ft | 405 kts | 311° |
| 2026-02-17 15:28 | 38.39104 | 138.65891 | 36068 ft | 405 kts | 310° |
| 2026-02-17 15:28 | 38.43446 | 138.61301 | 36072 ft | 405 kts | 311° |
| 2026-02-17 15:29 | 38.47773 | 138.56717 | 36093 ft | 406 kts | 311° |
| 2026-02-17 15:29 | 38.52094 | 138.52110 | 36097 ft | 406 kts | 311° |
| 2026-02-17 15:30 | 38.56400 | 138.47508 | 36074 ft | 406 kts | 311° |
| 2026-02-17 15:30 | 38.60738 | 138.42870 | 36057 ft | 405 kts | 311° |
| 2026-02-17 15:31 | 38.67222 | 138.35910 | 36111 ft | 406 kts | 311° |
| 2026-02-17 15:31 | 38.71549 | 138.31249 | 36028 ft | 406 kts | 310° |
| 2026-02-17 15:32 | 38.75832 | 138.26628 | 36082 ft | 405 kts | 311° |
| 2026-02-17 15:32 | 38.80137 | 138.21979 | 36065 ft | 406 kts | 311° |
| 2026-02-17 15:33 | 38.84477 | 138.17297 | 36071 ft | 407 kts | 311° |
| 2026-02-17 15:33 | 38.88791 | 138.12630 | 36068 ft | 406 kts | 311° |
| 2026-02-17 15:34 | 38.93101 | 138.07965 | 36038 ft | 407 kts | 311° |
| 2026-02-17 15:35 | 38.99276 | 138.01256 | 36088 ft | 408 kts | 311° |
| 2026-02-17 15:35 | 39.03625 | 137.96526 | 36096 ft | 409 kts | 311° |
| 2026-02-17 15:36 | 39.07969 | 137.91795 | 36090 ft | 409 kts | 311° |
| 2026-02-17 15:36 | 39.12302 | 137.87083 | 36080 ft | 410 kts | 311° |
| 2026-02-17 15:37 | 39.16671 | 137.82353 | 36071 ft | 410 kts | 313° |
| 2026-02-17 15:37 | 39.21310 | 137.78049 | 36072 ft | 417 kts | 319° |
| 2026-02-17 15:38 | 39.26409 | 137.74388 | 36079 ft | 424 kts | 326° |
| 2026-02-17 15:38 | 39.31933 | 137.71480 | 36054 ft | 432 kts | 332° |
| 2026-02-17 15:39 | 39.40550 | 137.68016 | 36093 ft | 435 kts | 334° |
| 2026-02-17 15:39 | 39.46056 | 137.65082 | 36091 ft | 421 kts | 323° |